Terminal Aerodrome Forecast
Issued by NWS

Home | Current Version | Previous Version | Text Only | Print | Product List | Glossary On
Versions: 1 2 3 4 5 6 7 8 9 10 11 12 13
549
FTUS43 KGRR 130150 AAA
TAFJXN
TAF AMD
KJXN 130150Z 1302/1324 31014G24KT 6SM -SN BKN035
      TEMPO 1302/1304 2SM -SN BKN018
     FM130500 32010KT 6SM -SN OVC035
     FM131500 32012G22KT P6SM BKN040
     FM132000 31008KT P6SM SCT040=

USA.gov is the U.S. government's official web portal to all federal, state and local government web resources and services.